sensor_id;sensor_type;location;lat;lon;timestamp;P1;durP1;ratioP1;P2;durP2;ratioP2
7057;SDS011;3570;43.080;25.628;2023-09-07T00:01:25;7.57;;;5.10;;
7057;SDS011;3570;43.080;25.628;2023-09-07T00:04:09;6.60;;;5.07;;
7057;SDS011;3570;43.080;25.628;2023-09-07T00:06:54;6.23;;;5.10;;
7057;SDS011;3570;43.080;25.628;2023-09-07T00:09:38;6.33;;;4.50;;
7057;SDS011;3570;43.080;25.628;2023-09-07T00:12:22;5.50;;;4.77;;
7057;SDS011;3570;43.080;25.628;2023-09-07T00:15:06;7.00;;;5.50;;
7057;SDS011;3570;43.080;25.628;2023-09-07T00:17:50;7.93;;;4.80;;
7057;SDS011;3570;43.080;25.628;2023-09-07T00:20:35;7.33;;;5.03;;
7057;SDS011;3570;43.080;25.628;2023-09-07T00:23:19;7.20;;;5.30;;
7057;SDS011;3570;43.080;25.628;2023-09-07T00:26:06;6.80;;;5.20;;
7057;SDS011;3570;43.080;25.628;2023-09-07T00:28:50;6.23;;;4.80;;
7057;SDS011;3570;43.080;25.628;2023-09-07T00:31:34;7.57;;;5.33;;
7057;SDS011;3570;43.080;25.628;2023-09-07T00:34:18;8.90;;;4.80;;
7057;SDS011;3570;43.080;25.628;2023-09-07T00:37:02;9.40;;;5.60;;
7057;SDS011;3570;43.080;25.628;2023-09-07T00:39:47;7.67;;;5.67;;
7057;SDS011;3570;43.080;25.628;2023-09-07T00:42:31;9.10;;;5.60;;
7057;SDS011;3570;43.080;25.628;2023-09-07T00:45:16;9.63;;;6.23;;
7057;SDS011;3570;43.080;25.628;2023-09-07T00:48:00;9.70;;;6.17;;
7057;SDS011;3570;43.080;25.628;2023-09-07T00:50:45;11.23;;;5.83;;
7057;SDS011;3570;43.080;25.628;2023-09-07T00:53:29;10.57;;;5.80;;
7057;SDS011;3570;43.080;25.628;2023-09-07T00:56:13;7.73;;;5.03;;
7057;SDS011;3570;43.080;25.628;2023-09-07T00:58:58;7.33;;;5.40;;
7057;SDS011;3570;43.080;25.628;2023-09-07T01:01:43;6.93;;;5.47;;
7057;SDS011;3570;43.080;25.628;2023-09-07T01:04:27;5.67;;;4.43;;
7057;SDS011;3570;43.080;25.628;2023-09-07T01:07:17;10.10;;;5.67;;
7057;SDS011;3570;43.080;25.628;2023-09-07T01:10:04;6.97;;;5.07;;
7057;SDS011;3570;43.080;25.628;2023-09-07T01:12:48;6.97;;;5.63;;
7057;SDS011;3570;43.080;25.628;2023-09-07T01:15:32;9.27;;;5.73;;
7057;SDS011;3570;43.080;25.628;2023-09-07T01:18:16;6.40;;;4.53;;
7057;SDS011;3570;43.080;25.628;2023-09-07T01:21:01;8.83;;;5.13;;
7057;SDS011;3570;43.080;25.628;2023-09-07T01:23:46;12.67;;;5.30;;
7057;SDS011;3570;43.080;25.628;2023-09-07T01:26:31;8.63;;;5.27;;
7057;SDS011;3570;43.080;25.628;2023-09-07T01:29:15;8.43;;;4.90;;
7057;SDS011;3570;43.080;25.628;2023-09-07T01:32:02;6.70;;;4.83;;
7057;SDS011;3570;43.080;25.628;2023-09-07T01:34:48;10.37;;;5.40;;
7057;SDS011;3570;43.080;25.628;2023-09-07T01:37:33;10.30;;;5.23;;
7057;SDS011;3570;43.080;25.628;2023-09-07T01:40:16;11.30;;;5.27;;
7057;SDS011;3570;43.080;25.628;2023-09-07T01:43:00;7.83;;;4.77;;
7057;SDS011;3570;43.080;25.628;2023-09-07T01:45:44;9.97;;;5.03;;
7057;SDS011;3570;43.080;25.628;2023-09-07T01:48:28;5.93;;;4.77;;
7057;SDS011;3570;43.080;25.628;2023-09-07T01:51:12;8.50;;;5.50;;
7057;SDS011;3570;43.080;25.628;2023-09-07T01:53:56;6.40;;;5.07;;
7057;SDS011;3570;43.080;25.628;2023-09-07T01:56:40;8.07;;;4.93;;
7057;SDS011;3570;43.080;25.628;2023-09-07T01:59:25;7.67;;;5.07;;
7057;SDS011;3570;43.080;25.628;2023-09-07T02:02:09;9.80;;;4.83;;
7057;SDS011;3570;43.080;25.628;2023-09-07T02:04:52;9.97;;;5.37;;
7057;SDS011;3570;43.080;25.628;2023-09-07T02:07:36;7.67;;;5.43;;
7057;SDS011;3570;43.080;25.628;2023-09-07T02:10:20;13.90;;;6.70;;
7057;SDS011;3570;43.080;25.628;2023-09-07T02:13:04;6.33;;;5.37;;
7057;SDS011;3570;43.080;25.628;2023-09-07T02:15:48;13.67;;;6.73;;
7057;SDS011;3570;43.080;25.628;2023-09-07T02:18:32;9.63;;;6.43;;
7057;SDS011;3570;43.080;25.628;2023-09-07T02:21:17;11.73;;;5.60;;
7057;SDS011;3570;43.080;25.628;2023-09-07T02:24:00;9.03;;;6.13;;
7057;SDS011;3570;43.080;25.628;2023-09-07T02:26:45;10.37;;;6.20;;
7057;SDS011;3570;43.080;25.628;2023-09-07T02:29:29;8.40;;;5.63;;
7057;SDS011;3570;43.080;25.628;2023-09-07T02:32:12;14.87;;;5.50;;
7057;SDS011;3570;43.080;25.628;2023-09-07T02:34:56;11.83;;;6.07;;
7057;SDS011;3570;43.080;25.628;2023-09-07T02:37:41;12.53;;;6.93;;
7057;SDS011;3570;43.080;25.628;2023-09-07T02:40:25;10.37;;;6.27;;
7057;SDS011;3570;43.080;25.628;2023-09-07T02:43:09;9.97;;;5.87;;
7057;SDS011;3570;43.080;25.628;2023-09-07T02:45:54;9.33;;;5.63;;
7057;SDS011;3570;43.080;25.628;2023-09-07T02:48:38;10.33;;;5.60;;
7057;SDS011;3570;43.080;25.628;2023-09-07T02:51:22;11.30;;;5.53;;
7057;SDS011;3570;43.080;25.628;2023-09-07T02:54:07;13.47;;;5.60;;
7057;SDS011;3570;43.080;25.628;2023-09-07T02:56:51;10.30;;;5.67;;
7057;SDS011;3570;43.080;25.628;2023-09-07T02:59:34;9.43;;;5.60;;
7057;SDS011;3570;43.080;25.628;2023-09-07T03:02:18;10.77;;;5.87;;
7057;SDS011;3570;43.080;25.628;2023-09-07T03:05:03;11.80;;;6.27;;
7057;SDS011;3570;43.080;25.628;2023-09-07T03:07:50;10.97;;;6.77;;
7057;SDS011;3570;43.080;25.628;2023-09-07T03:10:37;6.87;;;5.90;;
7057;SDS011;3570;43.080;25.628;2023-09-07T03:13:23;6.83;;;5.60;;
7057;SDS011;3570;43.080;25.628;2023-09-07T03:16:07;8.93;;;5.90;;
7057;SDS011;3570;43.080;25.628;2023-09-07T03:18:51;9.80;;;5.90;;
7057;SDS011;3570;43.080;25.628;2023-09-07T03:21:35;16.23;;;5.90;;
7057;SDS011;3570;43.080;25.628;2023-09-07T03:24:19;8.20;;;5.50;;
7057;SDS011;3570;43.080;25.628;2023-09-07T03:27:04;8.93;;;5.97;;
7057;SDS011;3570;43.080;25.628;2023-09-07T03:29:49;9.70;;;5.63;;
7057;SDS011;3570;43.080;25.628;2023-09-07T03:32:35;11.47;;;6.30;;
7057;SDS011;3570;43.080;25.628;2023-09-07T03:35:20;7.67;;;5.30;;
7057;SDS011;3570;43.080;25.628;2023-09-07T03:38:04;10.43;;;5.40;;
7057;SDS011;3570;43.080;25.628;2023-09-07T03:40:47;7.03;;;4.87;;
7057;SDS011;3570;43.080;25.628;2023-09-07T03:43:32;9.83;;;5.60;;
7057;SDS011;3570;43.080;25.628;2023-09-07T03:46:15;15.63;;;5.90;;
7057;SDS011;3570;43.080;25.628;2023-09-07T03:48:59;9.67;;;5.20;;
7057;SDS011;3570;43.080;25.628;2023-09-07T03:51:43;12.10;;;5.87;;
7057;SDS011;3570;43.080;25.628;2023-09-07T03:54:27;8.90;;;5.40;;
7057;SDS011;3570;43.080;25.628;2023-09-07T03:57:11;10.97;;;5.73;;
7057;SDS011;3570;43.080;25.628;2023-09-07T03:59:56;9.23;;;6.03;;
7057;SDS011;3570;43.080;25.628;2023-09-07T04:02:40;10.00;;;5.43;;
7057;SDS011;3570;43.080;25.628;2023-09-07T04:05:24;9.63;;;5.33;;
7057;SDS011;3570;43.080;25.628;2023-09-07T04:08:08;14.87;;;5.60;;
7057;SDS011;3570;43.080;25.628;2023-09-07T04:10:53;8.43;;;5.77;;
7057;SDS011;3570;43.080;25.628;2023-09-07T04:13:36;6.63;;;5.20;;
7057;SDS011;3570;43.080;25.628;2023-09-07T04:16:20;7.33;;;5.33;;
7057;SDS011;3570;43.080;25.628;2023-09-07T04:19:04;9.73;;;5.67;;
7057;SDS011;3570;43.080;25.628;2023-09-07T04:21:48;8.90;;;5.87;;
7057;SDS011;3570;43.080;25.628;2023-09-07T04:24:32;13.63;;;6.13;;
7057;SDS011;3570;43.080;25.628;2023-09-07T04:27:16;10.67;;;5.20;;
7057;SDS011;3570;43.080;25.628;2023-09-07T04:30:00;6.37;;;4.80;;
7057;SDS011;3570;43.080;25.628;2023-09-07T04:32:43;8.23;;;5.60;;
7057;SDS011;3570;43.080;25.628;2023-09-07T04:35:28;10.03;;;5.90;;
7057;SDS011;3570;43.080;25.628;2023-09-07T04:38:16;11.07;;;5.70;;
7057;SDS011;3570;43.080;25.628;2023-09-07T04:41:10;9.43;;;6.03;;
7057;SDS011;3570;43.080;25.628;2023-09-07T04:43:55;10.73;;;5.80;;
7057;SDS011;3570;43.080;25.628;2023-09-07T04:46:40;13.67;;;6.83;;
7057;SDS011;3570;43.080;25.628;2023-09-07T04:49:24;8.80;;;5.80;;
7057;SDS011;3570;43.080;25.628;2023-09-07T04:52:10;12.77;;;6.27;;
7057;SDS011;3570;43.080;25.628;2023-09-07T04:54:54;11.50;;;5.93;;
7057;SDS011;3570;43.080;25.628;2023-09-07T04:57:37;15.27;;;5.70;;
7057;SDS011;3570;43.080;25.628;2023-09-07T05:00:22;14.77;;;7.20;;
7057;SDS011;3570;43.080;25.628;2023-09-07T05:03:06;9.10;;;5.90;;
7057;SDS011;3570;43.080;25.628;2023-09-07T05:05:53;13.60;;;6.60;;
7057;SDS011;3570;43.080;25.628;2023-09-07T05:08:37;17.30;;;8.20;;
7057;SDS011;3570;43.080;25.628;2023-09-07T05:11:21;9.87;;;6.20;;
7057;SDS011;3570;43.080;25.628;2023-09-07T05:14:05;10.90;;;6.87;;
7057;SDS011;3570;43.080;25.628;2023-09-07T05:16:49;13.57;;;6.67;;
7057;SDS011;3570;43.080;25.628;2023-09-07T05:19:33;10.07;;;6.57;;
7057;SDS011;3570;43.080;25.628;2023-09-07T05:25:42;7.17;;;5.97;;
7057;SDS011;3570;43.080;25.628;2023-09-07T05:28:26;13.03;;;6.30;;
7057;SDS011;3570;43.080;25.628;2023-09-07T05:31:10;13.30;;;6.57;;
7057;SDS011;3570;43.080;25.628;2023-09-07T05:33:54;12.80;;;6.17;;
7057;SDS011;3570;43.080;25.628;2023-09-07T05:36:38;10.50;;;6.47;;
7057;SDS011;3570;43.080;25.628;2023-09-07T05:39:22;12.67;;;5.53;;
7057;SDS011;3570;43.080;25.628;2023-09-07T05:42:06;15.70;;;7.10;;
7057;SDS011;3570;43.080;25.628;2023-09-07T05:44:50;15.93;;;6.90;;
7057;SDS011;3570;43.080;25.628;2023-09-07T05:47:34;12.07;;;6.47;;
7057;SDS011;3570;43.080;25.628;2023-09-07T05:50:18;13.50;;;6.60;;
7057;SDS011;3570;43.080;25.628;2023-09-07T05:53:02;15.17;;;7.60;;
7057;SDS011;3570;43.080;25.628;2023-09-07T05:55:47;18.20;;;7.60;;
7057;SDS011;3570;43.080;25.628;2023-09-07T05:58:31;19.03;;;7.33;;
7057;SDS011;3570;43.080;25.628;2023-09-07T06:01:14;19.93;;;8.77;;
7057;SDS011;3570;43.080;25.628;2023-09-07T06:03:58;26.87;;;8.63;;
7057;SDS011;3570;43.080;25.628;2023-09-07T06:06:43;15.53;;;8.37;;
7057;SDS011;3570;43.080;25.628;2023-09-07T06:09:27;14.53;;;8.33;;
7057;SDS011;3570;43.080;25.628;2023-09-07T06:12:12;17.30;;;9.57;;
7057;SDS011;3570;43.080;25.628;2023-09-07T06:14:57;16.03;;;8.60;;
7057;SDS011;3570;43.080;25.628;2023-09-07T06:17:41;14.50;;;8.03;;
7057;SDS011;3570;43.080;25.628;2023-09-07T06:20:25;14.53;;;8.20;;
7057;SDS011;3570;43.080;25.628;2023-09-07T06:23:09;12.47;;;7.07;;
7057;SDS011;3570;43.080;25.628;2023-09-07T06:25:53;10.87;;;7.63;;
7057;SDS011;3570;43.080;25.628;2023-09-07T06:28:37;8.83;;;6.87;;
7057;SDS011;3570;43.080;25.628;2023-09-07T06:31:21;12.37;;;7.10;;
7057;SDS011;3570;43.080;25.628;2023-09-07T06:34:05;11.80;;;7.17;;
7057;SDS011;3570;43.080;25.628;2023-09-07T06:36:50;12.97;;;7.20;;
7057;SDS011;3570;43.080;25.628;2023-09-07T06:39:34;17.63;;;7.37;;
7057;SDS011;3570;43.080;25.628;2023-09-07T06:42:18;11.73;;;6.87;;
7057;SDS011;3570;43.080;25.628;2023-09-07T06:45:02;13.30;;;6.43;;
7057;SDS011;3570;43.080;25.628;2023-09-07T06:47:48;14.13;;;6.37;;
7057;SDS011;3570;43.080;25.628;2023-09-07T06:50:33;16.10;;;7.40;;
7057;SDS011;3570;43.080;25.628;2023-09-07T06:53:17;11.73;;;6.30;;
7057;SDS011;3570;43.080;25.628;2023-09-07T06:56:02;10.97;;;6.23;;
7057;SDS011;3570;43.080;25.628;2023-09-07T06:58:47;15.53;;;6.47;;
7057;SDS011;3570;43.080;25.628;2023-09-07T07:01:31;12.10;;;5.73;;
7057;SDS011;3570;43.080;25.628;2023-09-07T07:04:15;8.80;;;5.77;;
7057;SDS011;3570;43.080;25.628;2023-09-07T07:06:59;10.33;;;6.53;;
7057;SDS011;3570;43.080;25.628;2023-09-07T07:09:47;9.63;;;5.93;;
7057;SDS011;3570;43.080;25.628;2023-09-07T07:12:31;12.67;;;5.90;;
7057;SDS011;3570;43.080;25.628;2023-09-07T07:15:18;14.27;;;6.83;;
7057;SDS011;3570;43.080;25.628;2023-09-07T07:18:02;8.23;;;6.57;;
7057;SDS011;3570;43.080;25.628;2023-09-07T07:20:51;9.40;;;5.70;;
7057;SDS011;3570;43.080;25.628;2023-09-07T07:23:35;10.33;;;5.73;;
7057;SDS011;3570;43.080;25.628;2023-09-07T07:26:20;11.10;;;6.20;;
7057;SDS011;3570;43.080;25.628;2023-09-07T07:29:04;11.37;;;6.67;;
7057;SDS011;3570;43.080;25.628;2023-09-07T07:31:48;8.40;;;6.43;;
7057;SDS011;3570;43.080;25.628;2023-09-07T07:34:32;13.93;;;6.17;;
7057;SDS011;3570;43.080;25.628;2023-09-07T07:37:16;12.93;;;6.97;;
7057;SDS011;3570;43.080;25.628;2023-09-07T07:40:00;9.30;;;5.67;;
7057;SDS011;3570;43.080;25.628;2023-09-07T07:42:44;12.60;;;6.63;;
7057;SDS011;3570;43.080;25.628;2023-09-07T07:45:30;9.00;;;5.93;;
7057;SDS011;3570;43.080;25.628;2023-09-07T07:48:15;7.27;;;5.50;;
7057;SDS011;3570;43.080;25.628;2023-09-07T07:51:02;8.57;;;5.33;;
7057;SDS011;3570;43.080;25.628;2023-09-07T07:53:49;9.50;;;5.80;;
7057;SDS011;3570;43.080;25.628;2023-09-07T07:56:33;9.73;;;5.00;;
7057;SDS011;3570;43.080;25.628;2023-09-07T07:59:17;10.00;;;5.83;;
7057;SDS011;3570;43.080;25.628;2023-09-07T08:02:01;9.33;;;5.83;;
7057;SDS011;3570;43.080;25.628;2023-09-07T08:04:45;8.37;;;5.40;;
7057;SDS011;3570;43.080;25.628;2023-09-07T08:07:28;10.23;;;5.90;;
7057;SDS011;3570;43.080;25.628;2023-09-07T08:10:13;7.83;;;5.57;;
7057;SDS011;3570;43.080;25.628;2023-09-07T08:12:56;7.73;;;4.73;;
7057;SDS011;3570;43.080;25.628;2023-09-07T08:15:41;10.33;;;5.50;;
7057;SDS011;3570;43.080;25.628;2023-09-07T08:18:26;9.57;;;6.10;;
7057;SDS011;3570;43.080;25.628;2023-09-07T08:21:11;9.13;;;5.50;;
7057;SDS011;3570;43.080;25.628;2023-09-07T08:23:57;8.13;;;5.43;;
7057;SDS011;3570;43.080;25.628;2023-09-07T08:26:41;11.65;;;5.15;;
7057;SDS011;3570;43.080;25.628;2023-09-07T08:29:26;7.05;;;5.60;;
7057;SDS011;3570;43.080;25.628;2023-09-07T08:32:10;5.95;;;5.15;;
7057;SDS011;3570;43.080;25.628;2023-09-07T08:34:55;10.45;;;5.25;;
7057;SDS011;3570;43.080;25.628;2023-09-07T08:37:41;8.75;;;5.90;;
7057;SDS011;3570;43.080;25.628;2023-09-07T08:40:26;8.63;;;6.05;;
7057;SDS011;3570;43.080;25.628;2023-09-07T08:43:11;8.25;;;5.65;;
7057;SDS011;3570;43.080;25.628;2023-09-07T08:46:18;8.10;;;4.93;;
7057;SDS011;3570;43.080;25.628;2023-09-07T08:49:12;7.97;;;5.32;;
7057;SDS011;3570;43.080;25.628;2023-09-07T08:51:58;10.70;;;5.57;;
7057;SDS011;3570;43.080;25.628;2023-09-07T08:54:43;12.80;;;5.93;;
7057;SDS011;3570;43.080;25.628;2023-09-07T08:57:29;8.02;;;5.43;;
7057;SDS011;3570;43.080;25.628;2023-09-07T09:00:15;8.93;;;4.97;;
7057;SDS011;3570;43.080;25.628;2023-09-07T09:03:00;8.05;;;5.68;;
7057;SDS011;3570;43.080;25.628;2023-09-07T09:05:44;8.35;;;5.43;;
7057;SDS011;3570;43.080;25.628;2023-09-07T09:08:41;9.43;;;5.63;;
7057;SDS011;3570;43.080;25.628;2023-09-07T09:11:38;6.88;;;5.18;;
7057;SDS011;3570;43.080;25.628;2023-09-07T09:14:22;7.50;;;5.28;;
7057;SDS011;3570;43.080;25.628;2023-09-07T09:17:10;9.20;;;5.68;;
7057;SDS011;3570;43.080;25.628;2023-09-07T09:19:56;8.35;;;5.53;;
7057;SDS011;3570;43.080;25.628;2023-09-07T09:22:40;8.02;;;5.65;;
7057;SDS011;3570;43.080;25.628;2023-09-07T09:25:24;8.65;;;4.78;;
7057;SDS011;3570;43.080;25.628;2023-09-07T09:28:10;6.57;;;5.40;;
7057;SDS011;3570;43.080;25.628;2023-09-07T09:30:54;5.88;;;4.70;;
7057;SDS011;3570;43.080;25.628;2023-09-07T09:33:39;8.10;;;5.00;;
7057;SDS011;3570;43.080;25.628;2023-09-07T09:36:24;6.57;;;5.40;;
7057;SDS011;3570;43.080;25.628;2023-09-07T09:39:23;5.80;;;4.70;;
7057;SDS011;3570;43.080;25.628;2023-09-07T09:42:08;8.73;;;5.28;;
7057;SDS011;3570;43.080;25.628;2023-09-07T09:44:53;5.82;;;4.50;;
7057;SDS011;3570;43.080;25.628;2023-09-07T09:47:39;7.28;;;4.50;;
7057;SDS011;3570;43.080;25.628;2023-09-07T09:50:26;6.53;;;5.03;;
7057;SDS011;3570;43.080;25.628;2023-09-07T09:53:12;5.78;;;4.88;;
7057;SDS011;3570;43.080;25.628;2023-09-07T09:56:00;9.48;;;5.03;;
7057;SDS011;3570;43.080;25.628;2023-09-07T09:58:44;6.53;;;4.82;;
7057;SDS011;3570;43.080;25.628;2023-09-07T10:01:28;7.90;;;5.18;;
7057;SDS011;3570;43.080;25.628;2023-09-07T10:04:14;10.70;;;5.07;;
7057;SDS011;3570;43.080;25.628;2023-09-07T10:07:00;6.68;;;4.97;;
7057;SDS011;3570;43.080;25.628;2023-09-07T10:09:45;6.72;;;4.40;;
7057;SDS011;3570;43.080;25.628;2023-09-07T10:12:29;8.30;;;7.50;;
7057;SDS011;3570;43.080;25.628;2023-09-07T10:15:23;5.25;;;4.32;;
7057;SDS011;3570;43.080;25.628;2023-09-07T10:18:15;6.90;;;4.55;;
7057;SDS011;3570;43.080;25.628;2023-09-07T10:21:00;6.60;;;4.55;;
7057;SDS011;3570;43.080;25.628;2023-09-07T10:23:46;5.45;;;4.72;;
7057;SDS011;3570;43.080;25.628;2023-09-07T10:26:35;6.63;;;4.88;;
7057;SDS011;3570;43.080;25.628;2023-09-07T10:29:19;9.63;;;4.45;;
7057;SDS011;3570;43.080;25.628;2023-09-07T10:32:06;8.07;;;4.78;;
7057;SDS011;3570;43.080;25.628;2023-09-07T10:34:52;5.20;;;4.32;;
7057;SDS011;3570;43.080;25.628;2023-09-07T10:37:36;9.43;;;4.47;;
7057;SDS011;3570;43.080;25.628;2023-09-07T10:40:21;7.38;;;4.65;;
7057;SDS011;3570;43.080;25.628;2023-09-07T10:43:06;7.00;;;4.30;;
7057;SDS011;3570;43.080;25.628;2023-09-07T10:45:52;5.55;;;4.20;;
7057;SDS011;3570;43.080;25.628;2023-09-07T10:48:38;8.38;;;4.68;;
7057;SDS011;3570;43.080;25.628;2023-09-07T10:51:22;5.18;;;3.97;;
7057;SDS011;3570;43.080;25.628;2023-09-07T10:54:15;5.63;;;4.20;;
7057;SDS011;3570;43.080;25.628;2023-09-07T10:57:09;4.80;;;3.75;;
7057;SDS011;3570;43.080;25.628;2023-09-07T10:59:57;6.78;;;4.28;;
7057;SDS011;3570;43.080;25.628;2023-09-07T11:02:41;7.38;;;4.90;;
7057;SDS011;3570;43.080;25.628;2023-09-07T11:05:26;6.40;;;4.00;;
7057;SDS011;3570;43.080;25.628;2023-09-07T11:08:10;5.60;;;4.43;;
7057;SDS011;3570;43.080;25.628;2023-09-07T11:10:54;4.82;;;4.30;;
7057;SDS011;3570;43.080;25.628;2023-09-07T11:13:39;9.70;;;4.10;;
7057;SDS011;3570;43.080;25.628;2023-09-07T11:16:24;9.40;;;3.85;;
7057;SDS011;3570;43.080;25.628;2023-09-07T11:19:10;5.65;;;4.30;;
7057;SDS011;3570;43.080;25.628;2023-09-07T11:21:58;7.05;;;4.72;;
7057;SDS011;3570;43.080;25.628;2023-09-07T11:24:43;5.60;;;4.60;;
7057;SDS011;3570;43.080;25.628;2023-09-07T11:27:33;6.32;;;4.40;;
7057;SDS011;3570;43.080;25.628;2023-09-07T11:30:17;8.07;;;4.35;;
7057;SDS011;3570;43.080;25.628;2023-09-07T11:35:48;7.18;;;4.13;;
7057;SDS011;3570;43.080;25.628;2023-09-07T11:38:36;6.03;;;4.22;;
7057;SDS011;3570;43.080;25.628;2023-09-07T11:41:21;8.65;;;4.15;;
7057;SDS011;3570;43.080;25.628;2023-09-07T11:44:05;7.85;;;4.57;;
7057;SDS011;3570;43.080;25.628;2023-09-07T11:46:49;8.75;;;4.25;;
7057;SDS011;3570;43.080;25.628;2023-09-07T11:49:33;5.22;;;4.15;;
7057;SDS011;3570;43.080;25.628;2023-09-07T11:52:17;8.23;;;3.95;;
7057;SDS011;3570;43.080;25.628;2023-09-07T11:55:02;8.35;;;4.47;;
7057;SDS011;3570;43.080;25.628;2023-09-07T11:57:47;4.28;;;3.88;;
7057;SDS011;3570;43.080;25.628;2023-09-07T12:00:31;6.57;;;4.53;;
7057;SDS011;3570;43.080;25.628;2023-09-07T12:03:15;6.65;;;4.30;;
7057;SDS011;3570;43.080;25.628;2023-09-07T12:05:59;6.47;;;5.20;;
7057;SDS011;3570;43.080;25.628;2023-09-07T12:08:47;4.50;;;4.10;;
7057;SDS011;3570;43.080;25.628;2023-09-07T12:11:42;6.40;;;4.05;;
7057;SDS011;3570;43.080;25.628;2023-09-07T12:14:27;4.10;;;3.70;;
7057;SDS011;3570;43.080;25.628;2023-09-07T12:17:11;6.50;;;3.83;;
7057;SDS011;3570;43.080;25.628;2023-09-07T12:19:55;6.88;;;5.15;;
7057;SDS011;3570;43.080;25.628;2023-09-07T12:22:39;5.60;;;4.40;;
7057;SDS011;3570;43.080;25.628;2023-09-07T12:25:24;4.85;;;4.07;;
7057;SDS011;3570;43.080;25.628;2023-09-07T12:28:08;8.00;;;4.10;;
7057;SDS011;3570;43.080;25.628;2023-09-07T12:30:52;9.70;;;5.15;;
7057;SDS011;3570;43.080;25.628;2023-09-07T12:33:36;5.25;;;4.75;;
7057;SDS011;3570;43.080;25.628;2023-09-07T12:36:21;7.68;;;4.30;;
7057;SDS011;3570;43.080;25.628;2023-09-07T12:39:05;6.50;;;4.53;;
7057;SDS011;3570;43.080;25.628;2023-09-07T12:41:49;7.55;;;5.53;;
7057;SDS011;3570;43.080;25.628;2023-09-07T12:44:33;5.07;;;4.47;;
7057;SDS011;3570;43.080;25.628;2023-09-07T12:47:17;6.93;;;4.45;;
7057;SDS011;3570;43.080;25.628;2023-09-07T12:50:01;6.10;;;4.28;;
7057;SDS011;3570;43.080;25.628;2023-09-07T12:52:46;5.47;;;4.22;;
7057;SDS011;3570;43.080;25.628;2023-09-07T12:55:30;5.05;;;4.00;;
7057;SDS011;3570;43.080;25.628;2023-09-07T12:58:14;6.60;;;4.13;;
7057;SDS011;3570;43.080;25.628;2023-09-07T13:00:58;7.00;;;4.65;;
7057;SDS011;3570;43.080;25.628;2023-09-07T13:03:42;7.65;;;4.63;;
7057;SDS011;3570;43.080;25.628;2023-09-07T13:06:26;7.05;;;5.38;;
7057;SDS011;3570;43.080;25.628;2023-09-07T13:09:10;6.82;;;4.95;;
7057;SDS011;3570;43.080;25.628;2023-09-07T13:11:55;6.63;;;4.60;;
7057;SDS011;3570;43.080;25.628;2023-09-07T13:14:39;6.43;;;4.15;;
7057;SDS011;3570;43.080;25.628;2023-09-07T13:17:23;6.13;;;4.32;;
7057;SDS011;3570;43.080;25.628;2023-09-07T13:20:07;6.53;;;4.18;;
7057;SDS011;3570;43.080;25.628;2023-09-07T13:22:52;9.27;;;4.35;;
7057;SDS011;3570;43.080;25.628;2023-09-07T13:25:36;4.93;;;4.10;;
7057;SDS011;3570;43.080;25.628;2023-09-07T13:28:19;10.32;;;5.03;;
7057;SDS011;3570;43.080;25.628;2023-09-07T13:31:04;5.97;;;4.53;;
7057;SDS011;3570;43.080;25.628;2023-09-07T13:33:48;5.68;;;4.47;;
7057;SDS011;3570;43.080;25.628;2023-09-07T13:36:33;6.30;;;4.70;;
7057;SDS011;3570;43.080;25.628;2023-09-07T13:39:17;8.55;;;5.03;;
7057;SDS011;3570;43.080;25.628;2023-09-07T13:42:01;5.97;;;4.82;;
7057;SDS011;3570;43.080;25.628;2023-09-07T13:44:45;10.45;;;4.75;;
7057;SDS011;3570;43.080;25.628;2023-09-07T13:47:31;6.97;;;4.50;;
7057;SDS011;3570;43.080;25.628;2023-09-07T13:50:14;8.70;;;5.00;;
7057;SDS011;3570;43.080;25.628;2023-09-07T13:52:58;6.82;;;5.78;;
7057;SDS011;3570;43.080;25.628;2023-09-07T13:55:43;7.55;;;5.10;;
7057;SDS011;3570;43.080;25.628;2023-09-07T13:58:29;6.00;;;4.30;;
7057;SDS011;3570;43.080;25.628;2023-09-07T14:01:13;5.10;;;4.60;;
7057;SDS011;3570;43.080;25.628;2023-09-07T14:03:57;7.60;;;4.93;;
7057;SDS011;3570;43.080;25.628;2023-09-07T14:06:41;6.47;;;4.35;;
7057;SDS011;3570;43.080;25.628;2023-09-07T14:09:25;4.53;;;4.03;;
7057;SDS011;3570;43.080;25.628;2023-09-07T14:12:09;8.13;;;3.97;;
7057;SDS011;3570;43.080;25.628;2023-09-07T14:14:53;6.15;;;4.10;;
7057;SDS011;3570;43.080;25.628;2023-09-07T14:17:37;9.50;;;6.05;;
7057;SDS011;3570;43.080;25.628;2023-09-07T14:20:22;7.63;;;5.95;;
7057;SDS011;3570;43.080;25.628;2023-09-07T14:23:08;8.13;;;5.15;;
7057;SDS011;3570;43.080;25.628;2023-09-07T14:25:53;4.95;;;3.90;;
7057;SDS011;3570;43.080;25.628;2023-09-07T14:28:38;26.63;;;10.50;;
7057;SDS011;3570;43.080;25.628;2023-09-07T14:31:22;50.17;;;28.13;;
7057;SDS011;3570;43.080;25.628;2023-09-07T14:34:06;33.70;;;20.48;;
7057;SDS011;3570;43.080;25.628;2023-09-07T14:36:51;46.00;;;19.13;;
7057;SDS011;3570;43.080;25.628;2023-09-07T14:39:35;41.72;;;22.85;;
7057;SDS011;3570;43.080;25.628;2023-09-07T14:42:19;12.85;;;8.13;;
7057;SDS011;3570;43.080;25.628;2023-09-07T14:45:03;14.82;;;7.10;;
7057;SDS011;3570;43.080;25.628;2023-09-07T14:47:48;9.15;;;5.55;;
7057;SDS011;3570;43.080;25.628;2023-09-07T14:50:32;12.85;;;7.18;;
7057;SDS011;3570;43.080;25.628;2023-09-07T14:53:16;6.50;;;4.88;;
7057;SDS011;3570;43.080;25.628;2023-09-07T14:56:01;9.05;;;5.50;;
7057;SDS011;3570;43.080;25.628;2023-09-07T14:58:46;9.15;;;4.90;;
7057;SDS011;3570;43.080;25.628;2023-09-07T15:01:30;6.35;;;4.97;;
7057;SDS011;3570;43.080;25.628;2023-09-07T15:04:15;5.75;;;3.85;;
7057;SDS011;3570;43.080;25.628;2023-09-07T15:06:59;7.68;;;4.85;;
7057;SDS011;3570;43.080;25.628;2023-09-07T15:09:44;6.75;;;4.85;;
7057;SDS011;3570;43.080;25.628;2023-09-07T15:12:28;6.13;;;4.60;;
7057;SDS011;3570;43.080;25.628;2023-09-07T15:15:12;8.38;;;3.95;;
7057;SDS011;3570;43.080;25.628;2023-09-07T15:17:56;7.55;;;4.50;;
7057;SDS011;3570;43.080;25.628;2023-09-07T15:20:40;5.50;;;4.50;;
7057;SDS011;3570;43.080;25.628;2023-09-07T15:23:24;4.90;;;4.22;;
7057;SDS011;3570;43.080;25.628;2023-09-07T15:26:08;4.93;;;4.10;;
7057;SDS011;3570;43.080;25.628;2023-09-07T15:28:51;6.82;;;4.30;;
7057;SDS011;3570;43.080;25.628;2023-09-07T15:31:35;13.35;;;4.72;;
7057;SDS011;3570;43.080;25.628;2023-09-07T15:34:19;6.28;;;4.65;;
7057;SDS011;3570;43.080;25.628;2023-09-07T15:37:03;7.95;;;5.07;;
7057;SDS011;3570;43.080;25.628;2023-09-07T15:39:48;6.30;;;4.82;;
7057;SDS011;3570;43.080;25.628;2023-09-07T15:42:34;6.88;;;4.72;;
7057;SDS011;3570;43.080;25.628;2023-09-07T15:45:18;12.80;;;4.22;;
7057;SDS011;3570;43.080;25.628;2023-09-07T15:48:02;8.60;;;4.78;;
7057;SDS011;3570;43.080;25.628;2023-09-07T15:50:46;4.47;;;3.97;;
7057;SDS011;3570;43.080;25.628;2023-09-07T15:53:32;6.22;;;4.93;;
7057;SDS011;3570;43.080;25.628;2023-09-07T15:56:16;7.45;;;4.82;;
7057;SDS011;3570;43.080;25.628;2023-09-07T15:59:01;5.82;;;4.32;;
7057;SDS011;3570;43.080;25.628;2023-09-07T16:01:45;5.88;;;4.13;;
7057;SDS011;3570;43.080;25.628;2023-09-07T16:04:29;7.50;;;4.45;;
7057;SDS011;3570;43.080;25.628;2023-09-07T16:07:13;6.70;;;4.10;;
7057;SDS011;3570;43.080;25.628;2023-09-07T16:10:00;5.78;;;4.20;;
7057;SDS011;3570;43.080;25.628;2023-09-07T16:12:44;8.45;;;4.80;;
7057;SDS011;3570;43.080;25.628;2023-09-07T16:15:28;9.75;;;4.13;;
7057;SDS011;3570;43.080;25.628;2023-09-07T16:18:12;5.18;;;4.35;;
7057;SDS011;3570;43.080;25.628;2023-09-07T16:20:58;5.38;;;4.30;;
7057;SDS011;3570;43.080;25.628;2023-09-07T16:23:42;6.47;;;4.00;;
7057;SDS011;3570;43.080;25.628;2023-09-07T16:26:27;7.20;;;4.30;;
7057;SDS011;3570;43.080;25.628;2023-09-07T16:29:11;8.05;;;4.97;;
7057;SDS011;3570;43.080;25.628;2023-09-07T16:31:55;5.05;;;4.32;;
7057;SDS011;3570;43.080;25.628;2023-09-07T16:34:39;4.93;;;3.92;;
7057;SDS011;3570;43.080;25.628;2023-09-07T16:37:23;7.90;;;4.40;;
7057;SDS011;3570;43.080;25.628;2023-09-07T16:40:10;7.23;;;4.37;;
7057;SDS011;3570;43.080;25.628;2023-09-07T16:42:57;13.37;;;4.57;;
7057;SDS011;3570;43.080;25.628;2023-09-07T16:45:41;4.70;;;4.03;;
7057;SDS011;3570;43.080;25.628;2023-09-07T16:48:25;4.63;;;3.80;;
7057;SDS011;3570;43.080;25.628;2023-09-07T16:51:10;6.90;;;4.40;;